createdAt,value
2022-11-04T00:00:48.712Z,12.19
2022-11-04T00:03:15.782Z,12.17
2022-11-04T00:05:42.690Z,12.05
2022-11-04T00:08:24.347Z,12.18
2022-11-04T00:11:16.783Z,12.12
2022-11-04T00:13:44.327Z,12.05
2022-11-04T00:16:30.403Z,12.15
2022-11-04T00:18:57.465Z,12.13
2022-11-04T00:21:42.578Z,12.08
2022-11-04T00:24:30.814Z,12.14
2022-11-04T00:27:16.937Z,11.99
2022-11-04T00:29:44.194Z,12.09
2022-11-04T00:32:29.878Z,12.17
2022-11-04T00:34:56.792Z,12.17
2022-11-04T00:37:23.663Z,12.01
2022-11-04T00:39:50.569Z,12.07
2022-11-04T00:42:17.619Z,12.15
2022-11-04T00:44:44.464Z,12.19
2022-11-04T00:47:11.309Z,12.11
2022-11-04T00:49:38.244Z,12.06
2022-11-04T00:52:05.275Z,12.11
2022-11-04T00:54:32.166Z,12.00
2022-11-04T00:56:59.016Z,11.93
2022-11-04T00:59:25.863Z,11.92
2022-11-04T01:01:52.800Z,11.91
2022-11-04T01:04:19.757Z,11.88
2022-11-04T01:06:46.715Z,11.77
2022-11-04T01:09:15.017Z,11.84
2022-11-04T01:11:42.065Z,11.79
2022-11-04T01:14:09.338Z,11.87
2022-11-04T01:16:36.273Z,11.87
2022-11-04T01:19:04.027Z,11.85
2022-11-04T01:21:31.040Z,11.98
2022-11-04T01:23:58.089Z,11.97
2022-11-04T01:26:26.521Z,11.93
2022-11-04T01:28:55.294Z,11.99
2022-11-04T01:31:24.824Z,12.03
2022-11-04T01:33:54.016Z,12.00
2022-11-04T01:36:21.528Z,12.15
2022-11-04T01:38:48.746Z,12.01
2022-11-04T01:41:21.995Z,11.95
2022-11-04T01:43:54.802Z,12.07
2022-11-04T01:46:40.212Z,12.14
2022-11-04T01:49:24.459Z,12.13
2022-11-04T01:52:13.845Z,12.13
2022-11-04T01:54:43.290Z,12.07
2022-11-04T01:57:15.188Z,12.09
2022-11-04T01:59:42.638Z,12.19
2022-11-04T02:02:10.524Z,12.09
2022-11-04T02:04:39.626Z,12.07
2022-11-04T02:07:09.793Z,12.07
2022-11-04T02:09:40.049Z,12.07
2022-11-04T02:12:25.526Z,12.13
2022-11-04T02:14:54.246Z,12.11
2022-11-04T02:17:50.497Z,12.05
2022-11-04T02:20:30.007Z,12.09
2022-11-04T02:23:24.595Z,12.09
2022-11-04T02:25:57.654Z,12.04
2022-11-04T02:28:39.257Z,12.14
2022-11-04T02:31:22.464Z,12.02
2022-11-04T02:34:18.703Z,11.95
2022-11-04T02:37:09.056Z,11.89
2022-11-04T02:39:56.330Z,11.85
2022-11-04T02:42:29.648Z,11.85
2022-11-04T02:45:02.474Z,11.79
2022-11-04T02:47:31.663Z,11.89
2022-11-04T02:50:08.499Z,11.82
2022-11-04T02:52:58.132Z,11.77
2022-11-04T02:55:38.434Z,11.83
2022-11-04T02:58:10.079Z,11.83
2022-11-04T03:00:39.762Z,11.74
2022-11-04T03:03:15.512Z,11.78
2022-11-04T03:05:46.364Z,11.79
2022-11-04T03:08:21.944Z,11.78
2022-11-04T03:10:55.367Z,11.81
2022-11-04T03:13:36.390Z,11.82
2022-11-04T03:16:09.573Z,11.82
2022-11-04T03:18:53.334Z,11.80
2022-11-04T03:21:22.518Z,11.78
2022-11-04T03:23:49.488Z,11.68
2022-11-04T03:26:28.799Z,11.65
2022-11-04T03:28:58.466Z,11.66
2022-11-04T03:31:40.590Z,11.71
2022-11-04T03:34:07.466Z,11.66
2022-11-04T03:36:34.331Z,11.65
2022-11-04T03:39:01.205Z,11.59
2022-11-04T03:41:43.103Z,11.57
2022-11-04T03:44:10.175Z,11.66
2022-11-04T03:46:37.628Z,11.54
2022-11-04T03:49:05.646Z,11.56
2022-11-04T03:51:32.556Z,11.61
2022-11-04T03:54:00.098Z,11.69
2022-11-04T03:56:38.960Z,11.55
2022-11-04T03:59:19.334Z,11.57
2022-11-04T04:02:19.707Z,11.50
2022-11-04T04:04:59.848Z,11.50
2022-11-04T04:07:32.555Z,11.52
2022-11-04T04:10:27.531Z,11.47
2022-11-04T04:13:01.883Z,11.46
2022-11-04T04:15:45.727Z,11.49
2022-11-04T04:18:21.379Z,11.54
2022-11-04T04:20:52.272Z,11.53
2022-11-04T04:23:44.887Z,11.60
2022-11-04T04:26:32.556Z,11.51
2022-11-04T04:29:03.255Z,11.53
2022-11-04T04:31:50.575Z,11.59
2022-11-04T04:34:20.372Z,11.59
2022-11-04T04:37:01.733Z,11.64
2022-11-04T04:39:54.207Z,11.73
2022-11-04T04:42:40.056Z,11.73
2022-11-04T04:45:08.310Z,11.71
2022-11-04T04:47:40.537Z,11.70
2022-11-04T04:50:09.013Z,11.65
2022-11-04T04:52:40.004Z,11.76
2022-11-04T04:55:08.695Z,11.65
2022-11-04T04:57:36.080Z,11.78
2022-11-04T05:00:04.136Z,11.72
2022-11-04T05:02:31.072Z,11.75
2022-11-04T05:04:59.511Z,11.71
2022-11-04T05:07:26.534Z,11.61
2022-11-04T05:09:53.410Z,11.65
2022-11-04T05:12:20.317Z,11.74
2022-11-04T05:14:47.301Z,11.70
2022-11-04T05:17:15.655Z,11.71
2022-11-04T05:19:42.579Z,11.76
2022-11-04T05:22:09.429Z,11.79
2022-11-04T05:24:36.275Z,11.81
2022-11-04T05:27:03.252Z,11.75
2022-11-04T05:29:30.130Z,11.82
2022-11-04T05:31:57.171Z,11.81
2022-11-04T05:34:24.047Z,11.81
2022-11-04T05:36:51.005Z,11.91
2022-11-04T05:39:18.090Z,12.01
2022-11-04T05:41:44.918Z,12.03
2022-11-04T05:44:11.937Z,11.98
2022-11-04T05:46:38.871Z,12.00
2022-11-04T05:49:05.823Z,12.14
2022-11-04T05:51:33.394Z,12.22
2022-11-04T05:54:01.090Z,12.23
2022-11-04T05:56:27.919Z,12.18
2022-11-04T05:58:55.313Z,12.31
2022-11-04T06:01:38.730Z,12.33
2022-11-04T06:04:07.075Z,12.54
2022-11-04T06:06:36.582Z,12.51
2022-11-04T06:09:04.063Z,12.42
2022-11-04T06:11:31.570Z,12.42
2022-11-04T06:13:59.077Z,12.50
2022-11-04T06:16:26.308Z,12.56
2022-11-04T06:18:53.739Z,12.70
2022-11-04T06:21:26.182Z,12.88
2022-11-04T06:23:56.904Z,12.99
2022-11-04T06:26:28.242Z,12.91
2022-11-04T06:28:55.857Z,12.89
2022-11-04T06:31:23.070Z,12.92
2022-11-04T06:33:49.981Z,12.82
2022-11-04T06:36:17.512Z,12.98
2022-11-04T06:38:44.535Z,12.92
2022-11-04T06:41:15.286Z,12.82
2022-11-04T06:43:42.227Z,12.85
2022-11-04T06:46:36.506Z,13.06
2022-11-04T06:49:04.825Z,12.96
2022-11-04T06:51:31.958Z,13.07
2022-11-04T06:53:58.875Z,13.04
2022-11-04T06:56:26.161Z,13.09
2022-11-04T06:58:54.944Z,13.14
2022-11-04T07:01:23.641Z,13.16
2022-11-04T07:03:52.455Z,13.28
2022-11-04T07:06:20.069Z,13.38
2022-11-04T07:08:47.815Z,13.52
2022-11-04T07:11:15.610Z,13.59
2022-11-04T07:13:42.476Z,13.79
2022-11-04T07:16:09.792Z,13.93
2022-11-04T07:18:37.006Z,14.13
2022-11-04T07:21:09.761Z,14.25
2022-11-04T07:23:37.486Z,14.02
2022-11-04T07:26:06.815Z,14.16
2022-11-04T07:28:34.916Z,14.29
2022-11-04T07:31:03.189Z,14.53
2022-11-04T07:33:30.186Z,14.65
2022-11-04T07:35:58.478Z,14.80
2022-11-04T07:38:25.775Z,14.93
2022-11-04T07:40:52.627Z,14.79
2022-11-04T07:43:19.549Z,14.98
2022-11-04T07:45:46.835Z,14.80
2022-11-04T07:48:13.752Z,14.82
2022-11-04T07:50:41.083Z,14.68
2022-11-04T07:53:08.592Z,14.80
2022-11-04T07:55:43.085Z,14.93
2022-11-04T07:58:11.287Z,15.04
2022-11-04T08:00:38.129Z,15.24
2022-11-04T08:03:05.043Z,15.32
2022-11-04T08:05:31.934Z,15.21
2022-11-04T08:07:59.227Z,15.16
2022-11-04T08:10:26.505Z,15.16
2022-11-04T08:12:53.378Z,15.10
2022-11-04T08:15:20.251Z,15.35
2022-11-04T08:17:47.122Z,15.57
2022-11-04T08:20:14.289Z,15.71
2022-11-04T08:22:41.193Z,15.93
2022-11-04T08:25:08.421Z,16.09
2022-11-04T08:27:35.396Z,16.28
2022-11-04T08:30:03.283Z,16.21
2022-11-04T08:32:30.292Z,16.40
2022-11-04T08:34:57.140Z,16.40
2022-11-04T08:37:24.025Z,16.70
2022-11-04T08:39:51.022Z,16.58
2022-11-04T08:42:17.880Z,16.47
2022-11-04T08:44:44.753Z,16.61
2022-11-04T08:47:11.743Z,16.59
2022-11-04T08:49:39.911Z,16.57
2022-11-04T08:52:06.883Z,16.47
2022-11-04T08:54:34.235Z,16.71
2022-11-04T08:57:01.167Z,16.76
2022-11-04T08:59:28.282Z,16.66
2022-11-04T09:01:55.399Z,16.93
2022-11-04T09:04:22.767Z,16.99
2022-11-04T09:06:52.288Z,17.06
2022-11-04T09:09:19.586Z,17.23
2022-11-04T09:11:47.236Z,17.47
2022-11-04T09:14:14.790Z,17.15
2022-11-04T09:16:42.600Z,17.15
2022-11-04T09:19:09.968Z,17.35
2022-11-04T09:21:37.016Z,17.62
2022-11-04T09:24:04.862Z,17.74
2022-11-04T09:26:31.837Z,18.00
2022-11-04T09:28:59.836Z,17.92
2022-11-04T09:31:30.136Z,18.06
2022-11-04T09:33:57.656Z,18.13
2022-11-04T09:36:24.635Z,18.13
2022-11-04T09:38:51.884Z,18.08
2022-11-04T09:41:42.584Z,18.20
2022-11-04T10:17:59.393Z,16.89
2022-11-04T10:20:43.489Z,16.84
2022-11-04T10:23:19.946Z,17.33
2022-11-04T10:26:05.845Z,17.46
2022-11-04T10:28:43.010Z,17.75
2022-11-04T10:31:18.151Z,17.97
2022-11-04T10:33:50.736Z,17.77
2022-11-04T10:36:18.291Z,18.03
2022-11-04T10:38:56.153Z,17.94
2022-11-04T10:41:26.734Z,17.67
2022-11-04T10:44:20.462Z,18.06
2022-11-04T10:47:09.579Z,17.96
2022-11-04T10:50:27.601Z,18.10
2022-11-04T10:52:54.902Z,17.81
2022-11-04T10:55:41.792Z,17.84
2022-11-04T10:58:21.724Z,17.81
2022-11-04T11:00:49.371Z,17.77
2022-11-04T11:03:33.025Z,17.38
2022-11-04T11:06:22.234Z,17.33
2022-11-04T11:08:49.527Z,17.23
2022-11-04T11:11:34.435Z,17.05
2022-11-04T11:14:01.444Z,17.13
2022-11-04T11:16:30.504Z,17.21
2022-11-04T11:19:12.350Z,16.88
2022-11-04T11:21:45.486Z,16.63
2022-11-04T11:24:19.825Z,16.73
2022-11-04T11:26:50.545Z,16.74
2022-11-04T11:29:40.493Z,16.59
2022-11-04T11:32:33.197Z,16.31
2022-11-04T11:35:07.811Z,16.33
2022-11-04T11:37:39.956Z,16.23
2022-11-04T11:40:07.343Z,16.48
2022-11-04T11:42:34.786Z,16.47
2022-11-04T11:45:05.189Z,16.16
2022-11-04T11:47:32.468Z,16.34
2022-11-04T11:50:35.793Z,16.17
2022-11-04T11:53:17.450Z,16.24
2022-11-04T11:55:51.269Z,16.00
2022-11-04T12:01:51.130Z,15.95
2022-11-04T12:10:49.787Z,15.80
2022-11-04T12:13:26.712Z,15.82
2022-11-04T12:16:02.078Z,15.79
2022-11-04T12:19:02.387Z,15.70
2022-11-04T12:21:36.082Z,15.86
2022-11-04T12:24:44.540Z,16.05
2022-11-04T12:27:17.091Z,15.89
2022-11-04T12:30:08.343Z,16.05
2022-11-04T12:32:38.192Z,15.74
2022-11-04T12:35:09.390Z,15.72
2022-11-04T12:38:08.644Z,15.85
2022-11-04T12:41:27.666Z,15.77
2022-11-04T12:44:27.155Z,15.61
2022-11-04T12:47:01.218Z,15.53
2022-11-04T12:49:34.144Z,15.57
2022-11-04T12:52:27.940Z,15.43
2022-11-04T12:55:00.954Z,15.50
2022-11-04T12:57:42.270Z,15.49
2022-11-04T13:00:24.770Z,15.37
2022-11-04T13:03:09.843Z,15.54
2022-11-04T13:05:42.794Z,15.53
2022-11-04T13:08:14.523Z,15.43
2022-11-04T13:10:54.697Z,15.39
2022-11-04T13:13:28.511Z,15.39
2022-11-04T13:16:00.441Z,15.22
2022-11-04T13:18:32.236Z,15.21
2022-11-04T13:21:05.217Z,15.02
2022-11-04T13:23:36.836Z,14.90
2022-11-04T13:26:07.475Z,14.73
2022-11-04T13:28:38.580Z,14.72
2022-11-04T13:31:20.909Z,14.79
2022-11-04T13:34:09.690Z,14.87
2022-11-04T13:36:47.795Z,14.76
2022-11-04T13:39:14.650Z,14.88
2022-11-04T13:41:44.660Z,14.82
2022-11-04T13:44:23.735Z,14.85
2022-11-04T13:46:53.590Z,14.78
2022-11-04T13:49:34.033Z,14.78
2022-11-04T13:52:13.582Z,14.71
2022-11-04T13:54:43.407Z,14.55
2022-11-04T13:57:18.021Z,14.51
2022-11-04T14:00:15.664Z,14.56
2022-11-04T14:02:46.455Z,14.44
2022-11-04T14:05:32.467Z,14.44
2022-11-04T14:08:02.047Z,14.37
2022-11-04T14:10:51.076Z,14.26
2022-11-04T14:13:34.978Z,14.16
2022-11-04T14:16:11.888Z,14.09
2022-11-04T14:18:47.192Z,14.11
2022-11-04T14:21:16.952Z,14.00
2022-11-04T14:23:50.285Z,14.04
2022-11-04T14:26:23.571Z,14.06
2022-11-04T14:29:02.646Z,14.01
2022-11-04T14:31:47.508Z,13.97
2022-11-04T14:34:25.701Z,14.09
2022-11-04T14:37:21.360Z,14.11
2022-11-04T14:39:55.984Z,14.16
2022-11-04T14:42:50.658Z,14.01
2022-11-04T14:45:33.707Z,13.98
2022-11-04T14:48:18.219Z,13.97
2022-11-04T14:50:49.852Z,14.00
2022-11-04T14:53:28.088Z,13.92
2022-11-04T14:56:06.996Z,13.90
2022-11-04T14:58:34.010Z,13.85
2022-11-04T15:01:02.830Z,13.86
2022-11-04T15:06:40.673Z,13.86
2022-11-04T15:09:31.630Z,13.79
2022-11-04T15:12:29.016Z,13.65
2022-11-04T15:14:57.645Z,13.67
2022-11-04T15:17:28.668Z,13.70
2022-11-04T15:19:59.671Z,13.70
2022-11-04T15:22:28.604Z,13.82
2022-11-04T15:24:56.807Z,13.67
2022-11-04T15:27:29.296Z,13.79
2022-11-04T15:30:02.701Z,13.69
2022-11-04T15:32:29.671Z,13.76
2022-11-04T15:34:57.729Z,13.81
2022-11-04T15:37:29.038Z,13.72
2022-11-04T15:39:58.403Z,13.58
2022-11-04T15:42:43.180Z,13.72
2022-11-04T15:45:22.242Z,13.68
2022-11-04T15:47:49.772Z,13.59
2022-11-04T15:50:23.585Z,13.62
2022-11-04T15:52:58.512Z,13.63
2022-11-04T15:55:28.264Z,13.67
2022-11-04T15:57:56.230Z,13.61
2022-11-04T16:00:28.595Z,13.61
2022-11-04T16:02:58.567Z,13.68
2022-11-04T16:05:30.381Z,13.55
2022-11-04T16:08:22.046Z,13.68
2022-11-04T16:10:50.847Z,13.52
2022-11-04T16:13:17.702Z,13.53
2022-11-04T16:16:17.780Z,13.50
2022-11-04T16:18:51.344Z,13.57
2022-11-04T16:21:28.966Z,13.49
2022-11-04T16:24:07.513Z,13.59
2022-11-04T16:26:40.413Z,13.66
2022-11-04T16:29:10.639Z,13.66
2022-11-04T16:31:37.743Z,13.67
2022-11-04T16:34:11.298Z,13.61
2022-11-04T16:36:38.359Z,13.50
2022-11-04T16:39:09.017Z,13.53
2022-11-04T16:41:39.010Z,13.51
2022-11-04T16:44:15.259Z,13.44
2022-11-04T16:46:42.360Z,13.43
2022-11-04T16:49:14.437Z,13.43
2022-11-04T16:51:41.390Z,13.33
2022-11-04T16:54:08.964Z,13.39
2022-11-04T16:56:36.108Z,13.38
2022-11-04T16:59:03.122Z,13.32
2022-11-04T17:01:30.235Z,13.29
2022-11-04T17:03:57.263Z,13.35
2022-11-04T17:06:24.381Z,13.29
2022-11-04T17:08:51.459Z,13.34
2022-11-04T17:11:18.499Z,13.34
2022-11-04T17:13:45.335Z,13.43
2022-11-04T17:16:14.309Z,13.39
2022-11-04T17:18:42.033Z,13.38
2022-11-04T17:21:13.217Z,13.32
2022-11-04T17:23:40.258Z,13.37
2022-11-04T17:26:07.194Z,13.35
2022-11-04T17:28:34.172Z,13.45
2022-11-04T17:31:02.696Z,13.42
2022-11-04T17:33:29.919Z,13.43
2022-11-04T17:35:57.016Z,13.47
2022-11-04T17:38:23.968Z,13.30
2022-11-04T17:41:09.464Z,13.34
2022-11-04T17:43:54.955Z,13.45
2022-11-04T17:46:34.426Z,13.29
2022-11-04T17:49:08.450Z,13.39
2022-11-04T17:51:36.327Z,13.41
2022-11-04T17:54:03.676Z,13.34
2022-11-04T17:56:31.182Z,13.36
2022-11-04T17:59:02.215Z,13.38
2022-11-04T18:01:29.334Z,13.40
2022-11-04T18:03:56.536Z,13.39
2022-11-04T18:06:24.799Z,13.40
2022-11-04T18:08:56.910Z,13.37
2022-11-04T18:11:43.880Z,13.36
2022-11-04T18:14:16.380Z,13.44
2022-11-04T18:16:47.331Z,13.46
2022-11-04T18:19:15.600Z,13.57
2022-11-04T18:21:42.673Z,13.66
2022-11-04T18:24:10.107Z,13.56
2022-11-04T18:26:37.141Z,13.60
2022-11-04T18:29:04.890Z,13.59
2022-11-04T18:31:34.785Z,13.62
2022-11-04T18:34:04.182Z,13.62
2022-11-04T18:36:33.894Z,13.61
2022-11-04T18:39:01.702Z,13.66
2022-11-04T18:41:28.823Z,13.70
2022-11-04T18:43:55.720Z,13.75
2022-11-04T18:46:22.731Z,13.73
2022-11-04T18:48:51.341Z,13.88
2022-11-04T18:51:23.296Z,13.85
2022-11-04T18:53:51.465Z,13.80
2022-11-04T18:56:20.630Z,13.87
2022-11-04T18:58:48.767Z,13.79
2022-11-04T19:01:23.159Z,13.75
2022-11-04T19:03:51.129Z,13.79
2022-11-04T19:06:25.063Z,13.82
2022-11-04T19:08:56.004Z,13.73
2022-11-04T19:11:28.862Z,13.79
2022-11-04T19:14:05.172Z,13.74
2022-11-04T19:16:36.233Z,13.71
2022-11-04T19:19:05.334Z,13.73
2022-11-04T19:21:32.774Z,13.78
2022-11-04T19:24:00.690Z,13.77
2022-11-04T19:26:32.709Z,13.77
2022-11-04T19:29:01.018Z,13.77
2022-11-04T19:31:30.556Z,13.78
2022-11-04T19:33:59.352Z,13.79
2022-11-04T19:36:26.625Z,13.86
2022-11-04T19:38:55.014Z,13.86
2022-11-04T19:41:41.343Z,13.84
2022-11-04T19:44:11.699Z,13.87
2022-11-04T19:46:39.460Z,13.89
2022-11-04T19:49:07.191Z,13.83
2022-11-04T19:51:35.262Z,13.91
2022-11-04T19:54:02.522Z,13.98
2022-11-04T19:56:31.422Z,14.00
2022-11-04T19:59:03.052Z,13.97
2022-11-04T20:01:34.465Z,13.96
2022-11-04T20:04:05.358Z,13.96
2022-11-04T20:06:33.298Z,14.06
2022-11-04T20:09:08.025Z,14.01
2022-11-04T20:11:57.340Z,14.02
2022-11-04T20:14:24.884Z,14.07
2022-11-04T20:16:51.950Z,14.09
2022-11-04T20:19:22.637Z,14.18
2022-11-04T20:21:50.207Z,14.15
2022-11-04T20:24:17.124Z,14.15
2022-11-04T20:26:44.504Z,14.18
2022-11-04T20:29:12.186Z,14.25
2022-11-04T20:31:41.360Z,14.26
2022-11-04T20:34:10.623Z,14.16
2022-11-04T20:36:38.525Z,14.25
2022-11-04T20:39:08.550Z,14.20
2022-11-04T20:41:35.499Z,14.26
2022-11-04T20:44:02.947Z,14.22
2022-11-04T20:46:31.635Z,14.22
2022-11-04T20:48:59.165Z,14.24
2022-11-04T20:51:31.261Z,14.20
2022-11-04T20:54:00.682Z,14.30
2022-11-04T20:56:32.996Z,14.28
2022-11-04T20:59:00.613Z,14.25
2022-11-04T21:01:30.866Z,14.25
2022-11-04T21:04:11.394Z,14.22
2022-11-04T21:06:39.481Z,14.28
2022-11-04T21:09:08.957Z,14.24
2022-11-04T21:11:36.463Z,14.26
2022-11-04T21:14:04.453Z,14.19
2022-11-04T21:16:31.465Z,14.14
2022-11-04T21:18:58.582Z,14.16
2022-11-04T21:21:28.404Z,14.18
2022-11-04T21:23:59.659Z,14.14
2022-11-04T21:26:28.675Z,14.17
2022-11-04T21:29:01.639Z,14.12
2022-11-04T21:31:30.677Z,14.04
2022-11-04T21:33:58.292Z,14.02
2022-11-04T21:36:25.769Z,14.02
2022-11-04T21:38:53.041Z,14.05
2022-11-04T21:41:24.543Z,14.05
2022-11-04T21:43:59.220Z,14.05
2022-11-04T21:46:27.812Z,13.99
2022-11-04T21:48:55.743Z,13.93
2022-11-04T21:51:25.482Z,14.02
2022-11-04T21:53:52.495Z,14.04
2022-11-04T21:56:22.229Z,13.93
2022-11-04T21:58:49.363Z,13.88
2022-11-04T22:01:18.995Z,13.89
2022-11-04T22:03:53.304Z,13.89
2022-11-04T22:06:20.279Z,13.91
2022-11-04T22:08:56.304Z,13.84
2022-11-04T22:11:28.924Z,13.91
2022-11-04T22:14:02.035Z,13.89
2022-11-04T22:16:31.010Z,13.89
2022-11-04T22:18:59.822Z,13.92
2022-11-04T22:21:28.948Z,13.90
2022-11-04T22:23:57.017Z,14.03
2022-11-04T22:26:26.502Z,13.94
2022-11-04T22:28:54.426Z,14.02
2022-11-04T22:31:29.956Z,14.04
2022-11-04T22:33:57.730Z,13.96
2022-11-04T22:36:24.631Z,13.92
2022-11-04T22:38:51.544Z,13.94
2022-11-04T22:41:21.645Z,13.94
2022-11-04T22:43:48.863Z,13.99
2022-11-04T22:46:19.915Z,14.03
2022-11-04T22:48:47.165Z,14.11
2022-11-04T22:51:14.558Z,14.13
2022-11-04T22:53:41.585Z,14.24
2022-11-04T22:56:11.261Z,14.13
2022-11-04T22:58:38.403Z,14.11
2022-11-04T23:01:11.709Z,14.06
2022-11-04T23:03:39.526Z,14.17
2022-11-04T23:06:07.993Z,14.10
2022-11-04T23:08:36.304Z,14.10
2022-11-04T23:11:34.121Z,14.08
2022-11-04T23:14:21.114Z,14.10
2022-11-04T23:17:08.898Z,14.15
2022-11-04T23:19:37.607Z,14.13
2022-11-04T23:22:23.397Z,14.04
2022-11-04T23:25:08.993Z,14.01
2022-11-04T23:27:57.118Z,14.03
2022-11-04T23:30:25.897Z,14.04
2022-11-04T23:32:57.159Z,13.97
2022-11-04T23:35:51.228Z,14.09
2022-11-04T23:38:19.469Z,14.04
2022-11-04T23:41:07.347Z,14.08
2022-11-04T23:43:34.943Z,14.10
2022-11-04T23:46:21.003Z,14.06
2022-11-04T23:49:26.253Z,14.06
2022-11-04T23:52:11.703Z,14.03
2022-11-04T23:54:57.305Z,14.03
2022-11-04T23:57:42.857Z,14.02
